sensor_id;sensor_type;location;lat;lon;timestamp;temperature;humidity
61841;DHT22;47773;53.174;6.614;2022-09-09T00:06:16;16.00;99.90
61841;DHT22;47773;53.174;6.614;2022-09-09T00:08:57;15.80;99.90
61841;DHT22;47773;53.174;6.614;2022-09-09T00:11:31;15.80;99.90
61841;DHT22;47773;53.174;6.614;2022-09-09T00:16:32;15.80;99.90
61841;DHT22;47773;53.174;6.614;2022-09-09T00:21:37;15.70;99.90
61841;DHT22;47773;53.174;6.614;2022-09-09T00:24:32;15.60;99.90
61841;DHT22;47773;53.174;6.614;2022-09-09T00:27:30;15.60;99.90
61841;DHT22;47773;53.174;6.614;2022-09-09T00:30:17;15.60;99.90
61841;DHT22;47773;53.174;6.614;2022-09-09T00:32:47;15.60;99.90
61841;DHT22;47773;53.174;6.614;2022-09-09T00:37:53;15.60;99.90
61841;DHT22;47773;53.174;6.614;2022-09-09T00:40:37;15.50;99.90
61841;DHT22;47773;53.174;6.614;2022-09-09T00:51:57;15.40;99.90
61841;DHT22;47773;53.174;6.614;2022-09-09T00:57:24;15.40;99.90
61841;DHT22;47773;53.174;6.614;2022-09-09T01:00:18;15.40;99.90
61841;DHT22;47773;53.174;6.614;2022-09-09T01:03:23;15.40;99.90
61841;DHT22;47773;53.174;6.614;2022-09-09T01:08:42;15.40;99.90
61841;DHT22;47773;53.174;6.614;2022-09-09T01:11:22;15.40;99.90
61841;DHT22;47773;53.174;6.614;2022-09-09T01:13:56;15.40;99.90
61841;DHT22;47773;53.174;6.614;2022-09-09T01:16:25;15.40;99.90
61841;DHT22;47773;53.174;6.614;2022-09-09T01:18:53;15.40;99.90
61841;DHT22;47773;53.174;6.614;2022-09-09T01:21:46;15.30;99.90
61841;DHT22;47773;53.174;6.614;2022-09-09T01:26:54;15.40;99.90
61841;DHT22;47773;53.174;6.614;2022-09-09T01:29:22;15.30;99.90
61841;DHT22;47773;53.174;6.614;2022-09-09T01:31:56;15.30;99.90
61841;DHT22;47773;53.174;6.614;2022-09-09T01:34:25;15.20;99.90
61841;DHT22;47773;53.174;6.614;2022-09-09T01:39:30;15.20;99.90
61841;DHT22;47773;53.174;6.614;2022-09-09T01:41:56;15.20;99.90
61841;DHT22;47773;53.174;6.614;2022-09-09T01:44:23;15.20;99.90
61841;DHT22;47773;53.174;6.614;2022-09-09T01:46:49;15.10;99.90
61841;DHT22;47773;53.174;6.614;2022-09-09T01:49:16;15.10;99.90
61841;DHT22;47773;53.174;6.614;2022-09-09T01:51:42;15.00;99.90
61841;DHT22;47773;53.174;6.614;2022-09-09T01:54:08;15.10;99.90
61841;DHT22;47773;53.174;6.614;2022-09-09T01:56:46;15.10;99.90
61841;DHT22;47773;53.174;6.614;2022-09-09T02:07:39;15.00;99.90
61841;DHT22;47773;53.174;6.614;2022-09-09T02:13:11;15.00;99.90
61841;DHT22;47773;53.174;6.614;2022-09-09T02:16:00;14.90;99.90
61841;DHT22;47773;53.174;6.614;2022-09-09T02:18:38;14.90;99.90
61841;DHT22;47773;53.174;6.614;2022-09-09T02:21:07;14.90;99.90
61841;DHT22;47773;53.174;6.614;2022-09-09T02:23:34;14.90;99.90
61841;DHT22;47773;53.174;6.614;2022-09-09T02:26:00;14.80;99.90
61841;DHT22;47773;53.174;6.614;2022-09-09T02:28:30;14.80;99.90
61841;DHT22;47773;53.174;6.614;2022-09-09T02:30:57;14.80;99.90
61841;DHT22;47773;53.174;6.614;2022-09-09T02:33:27;14.80;99.90
61841;DHT22;47773;53.174;6.614;2022-09-09T02:35:55;14.80;99.90
61841;DHT22;47773;53.174;6.614;2022-09-09T02:38:29;14.80;99.90
61841;DHT22;47773;53.174;6.614;2022-09-09T02:40:58;14.80;99.90
61841;DHT22;47773;53.174;6.614;2022-09-09T02:43:24;14.80;99.90
61841;DHT22;47773;53.174;6.614;2022-09-09T02:46:03;14.70;99.90
61841;DHT22;47773;53.174;6.614;2022-09-09T02:48:41;14.80;99.90
61841;DHT22;47773;53.174;6.614;2022-09-09T02:51:45;14.80;99.90
61841;DHT22;47773;53.174;6.614;2022-09-09T02:54:27;14.80;99.90
61841;DHT22;47773;53.174;6.614;2022-09-09T02:57:02;14.80;99.90
61841;DHT22;47773;53.174;6.614;2022-09-09T02:59:29;14.80;99.90
61841;DHT22;47773;53.174;6.614;2022-09-09T03:01:55;14.80;99.90
61841;DHT22;47773;53.174;6.614;2022-09-09T03:04:21;14.90;99.90
61841;DHT22;47773;53.174;6.614;2022-09-09T03:06:47;14.90;99.90
61841;DHT22;47773;53.174;6.614;2022-09-09T03:09:13;14.90;99.90
61841;DHT22;47773;53.174;6.614;2022-09-09T03:11:38;14.90;99.90
61841;DHT22;47773;53.174;6.614;2022-09-09T03:14:04;14.90;99.90
61841;DHT22;47773;53.174;6.614;2022-09-09T03:16:30;14.90;99.90
61841;DHT22;47773;53.174;6.614;2022-09-09T03:18:56;14.90;99.90
61841;DHT22;47773;53.174;6.614;2022-09-09T03:21:21;14.90;99.90
61841;DHT22;47773;53.174;6.614;2022-09-09T03:23:47;15.00;99.90
61841;DHT22;47773;53.174;6.614;2022-09-09T03:26:12;15.00;99.90
61841;DHT22;47773;53.174;6.614;2022-09-09T03:28:41;15.00;99.90
61841;DHT22;47773;53.174;6.614;2022-09-09T03:31:06;15.00;99.90
61841;DHT22;47773;53.174;6.614;2022-09-09T03:33:38;15.00;99.90
61841;DHT22;47773;53.174;6.614;2022-09-09T03:36:04;15.00;99.90
61841;DHT22;47773;53.174;6.614;2022-09-09T03:38:31;15.00;99.90
61841;DHT22;47773;53.174;6.614;2022-09-09T03:40:57;15.00;99.90
61841;DHT22;47773;53.174;6.614;2022-09-09T03:43:27;15.00;99.90
61841;DHT22;47773;53.174;6.614;2022-09-09T03:45:53;15.00;99.90
61841;DHT22;47773;53.174;6.614;2022-09-09T03:48:22;15.10;99.90
61841;DHT22;47773;53.174;6.614;2022-09-09T03:50:50;15.10;99.90
61841;DHT22;47773;53.174;6.614;2022-09-09T03:53:18;15.10;99.90
61841;DHT22;47773;53.174;6.614;2022-09-09T03:55:48;15.10;99.90
61841;DHT22;47773;53.174;6.614;2022-09-09T03:58:15;15.10;99.90
61841;DHT22;47773;53.174;6.614;2022-09-09T04:00:41;15.20;99.90
61841;DHT22;47773;53.174;6.614;2022-09-09T04:03:11;15.20;99.90
61841;DHT22;47773;53.174;6.614;2022-09-09T04:05:39;15.20;99.90
61841;DHT22;47773;53.174;6.614;2022-09-09T04:08:07;15.20;99.90
61841;DHT22;47773;53.174;6.614;2022-09-09T04:10:34;15.20;99.90
61841;DHT22;47773;53.174;6.614;2022-09-09T04:13:03;15.30;99.90
61841;DHT22;47773;53.174;6.614;2022-09-09T04:15:29;15.30;99.90
61841;DHT22;47773;53.174;6.614;2022-09-09T04:17:55;15.30;99.90
61841;DHT22;47773;53.174;6.614;2022-09-09T04:20:21;15.30;99.90
61841;DHT22;47773;53.174;6.614;2022-09-09T04:22:47;15.30;99.90
61841;DHT22;47773;53.174;6.614;2022-09-09T04:25:13;15.30;99.90
61841;DHT22;47773;53.174;6.614;2022-09-09T04:27:39;15.30;99.90
61841;DHT22;47773;53.174;6.614;2022-09-09T04:30:05;15.30;99.90
61841;DHT22;47773;53.174;6.614;2022-09-09T04:32:33;15.30;99.90
61841;DHT22;47773;53.174;6.614;2022-09-09T04:34:58;15.30;99.90
61841;DHT22;47773;53.174;6.614;2022-09-09T04:37:24;15.30;99.90
61841;DHT22;47773;53.174;6.614;2022-09-09T04:39:50;15.40;99.90
61841;DHT22;47773;53.174;6.614;2022-09-09T04:42:16;15.30;99.90
61841;DHT22;47773;53.174;6.614;2022-09-09T04:44:43;15.40;99.90
61841;DHT22;47773;53.174;6.614;2022-09-09T04:47:09;15.30;99.90
61841;DHT22;47773;53.174;6.614;2022-09-09T04:49:35;15.30;99.90
61841;DHT22;47773;53.174;6.614;2022-09-09T04:52:02;15.40;99.90
61841;DHT22;47773;53.174;6.614;2022-09-09T04:54:29;15.30;99.90
61841;DHT22;47773;53.174;6.614;2022-09-09T04:56:54;15.30;99.90
61841;DHT22;47773;53.174;6.614;2022-09-09T04:59:20;15.30;99.90
61841;DHT22;47773;53.174;6.614;2022-09-09T05:01:47;15.30;99.90
61841;DHT22;47773;53.174;6.614;2022-09-09T05:04:13;15.30;99.90
61841;DHT22;47773;53.174;6.614;2022-09-09T05:06:40;15.30;99.90
61841;DHT22;47773;53.174;6.614;2022-09-09T05:09:07;15.30;99.90
61841;DHT22;47773;53.174;6.614;2022-09-09T05:11:34;15.30;99.90
61841;DHT22;47773;53.174;6.614;2022-09-09T05:14:02;15.30;99.90
61841;DHT22;47773;53.174;6.614;2022-09-09T05:16:28;15.20;99.90
61841;DHT22;47773;53.174;6.614;2022-09-09T05:18:55;15.20;99.90
61841;DHT22;47773;53.174;6.614;2022-09-09T05:21:22;15.20;99.90
61841;DHT22;47773;53.174;6.614;2022-09-09T05:23:48;15.20;99.90
61841;DHT22;47773;53.174;6.614;2022-09-09T05:26:19;15.20;99.90
61841;DHT22;47773;53.174;6.614;2022-09-09T05:28:46;15.20;99.90
61841;DHT22;47773;53.174;6.614;2022-09-09T05:31:13;15.20;99.90
61841;DHT22;47773;53.174;6.614;2022-09-09T05:33:41;15.20;99.90
61841;DHT22;47773;53.174;6.614;2022-09-09T05:36:09;15.20;99.90
61841;DHT22;47773;53.174;6.614;2022-09-09T05:38:36;15.20;99.90
61841;DHT22;47773;53.174;6.614;2022-09-09T05:41:03;15.20;99.90
61841;DHT22;47773;53.174;6.614;2022-09-09T05:43:29;15.20;99.90
61841;DHT22;47773;53.174;6.614;2022-09-09T05:46:04;15.20;99.90
61841;DHT22;47773;53.174;6.614;2022-09-09T05:48:40;15.10;99.90
61841;DHT22;47773;53.174;6.614;2022-09-09T05:51:09;15.10;99.90
61841;DHT22;47773;53.174;6.614;2022-09-09T05:53:36;15.10;99.90
61841;DHT22;47773;53.174;6.614;2022-09-09T05:56:10;15.10;99.90
61841;DHT22;47773;53.174;6.614;2022-09-09T05:58:37;15.10;99.90
61841;DHT22;47773;53.174;6.614;2022-09-09T06:01:08;15.10;99.90
61841;DHT22;47773;53.174;6.614;2022-09-09T06:03:36;15.10;99.90
61841;DHT22;47773;53.174;6.614;2022-09-09T06:06:07;15.10;99.90
61841;DHT22;47773;53.174;6.614;2022-09-09T06:08:35;15.10;99.90
61841;DHT22;47773;53.174;6.614;2022-09-09T06:11:06;15.20;99.90
61841;DHT22;47773;53.174;6.614;2022-09-09T06:13:32;15.10;99.90
61841;DHT22;47773;53.174;6.614;2022-09-09T06:15:58;15.10;99.90
61841;DHT22;47773;53.174;6.614;2022-09-09T06:18:27;15.20;99.90
61841;DHT22;47773;53.174;6.614;2022-09-09T06:21:00;15.10;99.90
61841;DHT22;47773;53.174;6.614;2022-09-09T06:23:27;15.10;99.90
61841;DHT22;47773;53.174;6.614;2022-09-09T06:26:10;15.20;99.90
61841;DHT22;47773;53.174;6.614;2022-09-09T06:28:36;15.20;99.90
61841;DHT22;47773;53.174;6.614;2022-09-09T06:31:07;15.10;99.90
61841;DHT22;47773;53.174;6.614;2022-09-09T06:33:38;15.10;99.90
61841;DHT22;47773;53.174;6.614;2022-09-09T06:36:13;15.10;99.90
61841;DHT22;47773;53.174;6.614;2022-09-09T06:38:40;15.10;99.90
61841;DHT22;47773;53.174;6.614;2022-09-09T06:41:07;15.20;99.90
61841;DHT22;47773;53.174;6.614;2022-09-09T06:43:33;15.20;99.90
61841;DHT22;47773;53.174;6.614;2022-09-09T06:46:09;15.20;99.90
61841;DHT22;47773;53.174;6.614;2022-09-09T06:48:35;15.20;99.90
61841;DHT22;47773;53.174;6.614;2022-09-09T06:51:18;15.30;99.90
61841;DHT22;47773;53.174;6.614;2022-09-09T06:53:45;15.30;99.90
61841;DHT22;47773;53.174;6.614;2022-09-09T06:58:40;15.30;99.90
61841;DHT22;47773;53.174;6.614;2022-09-09T07:01:20;15.40;99.90
61841;DHT22;47773;53.174;6.614;2022-09-09T07:03:49;15.40;99.90
61841;DHT22;47773;53.174;6.614;2022-09-09T07:06:18;15.50;99.90
61841;DHT22;47773;53.174;6.614;2022-09-09T07:08:48;15.50;99.90
61841;DHT22;47773;53.174;6.614;2022-09-09T07:11:14;15.50;99.90
61841;DHT22;47773;53.174;6.614;2022-09-09T07:13:40;15.60;99.90
61841;DHT22;47773;53.174;6.614;2022-09-09T07:16:06;15.60;99.90
61841;DHT22;47773;53.174;6.614;2022-09-09T07:18:32;15.60;99.90
61841;DHT22;47773;53.174;6.614;2022-09-09T07:20:58;15.60;99.90
61841;DHT22;47773;53.174;6.614;2022-09-09T07:23:24;15.60;99.90
61841;DHT22;47773;53.174;6.614;2022-09-09T07:25:51;15.70;99.90
61841;DHT22;47773;53.174;6.614;2022-09-09T07:28:19;15.70;99.90
61841;DHT22;47773;53.174;6.614;2022-09-09T07:30:53;15.70;99.90
61841;DHT22;47773;53.174;6.614;2022-09-09T07:33:19;15.70;99.90
61841;DHT22;47773;53.174;6.614;2022-09-09T07:35:45;15.80;99.90
61841;DHT22;47773;53.174;6.614;2022-09-09T07:38:11;15.80;99.90
61841;DHT22;47773;53.174;6.614;2022-09-09T07:40:37;15.90;99.90
61841;DHT22;47773;53.174;6.614;2022-09-09T07:43:03;15.90;99.90
61841;DHT22;47773;53.174;6.614;2022-09-09T07:45:28;16.00;99.90
61841;DHT22;47773;53.174;6.614;2022-09-09T07:47:54;16.00;99.90
61841;DHT22;47773;53.174;6.614;2022-09-09T07:50:22;16.00;99.90
61841;DHT22;47773;53.174;6.614;2022-09-09T07:52:50;16.10;99.90
61841;DHT22;47773;53.174;6.614;2022-09-09T07:55:15;16.10;99.90
61841;DHT22;47773;53.174;6.614;2022-09-09T07:57:41;16.20;99.90
61841;DHT22;47773;53.174;6.614;2022-09-09T08:00:07;16.30;99.90
61841;DHT22;47773;53.174;6.614;2022-09-09T08:02:33;16.30;99.90
61841;DHT22;47773;53.174;6.614;2022-09-09T08:04:58;16.40;99.90
61841;DHT22;47773;53.174;6.614;2022-09-09T08:09:51;16.60;99.90
61841;DHT22;47773;53.174;6.614;2022-09-09T08:14:43;16.90;99.90
61841;DHT22;47773;53.174;6.614;2022-09-09T08:17:09;16.90;99.90
61841;DHT22;47773;53.174;6.614;2022-09-09T08:19:35;16.90;99.90
61841;DHT22;47773;53.174;6.614;2022-09-09T08:22:02;16.90;99.90
61841;DHT22;47773;53.174;6.614;2022-09-09T08:24:28;17.10;99.90
61841;DHT22;47773;53.174;6.614;2022-09-09T08:26:54;17.20;99.90
61841;DHT22;47773;53.174;6.614;2022-09-09T08:29:20;17.20;99.90
61841;DHT22;47773;53.174;6.614;2022-09-09T08:31:50;17.20;99.90
61841;DHT22;47773;53.174;6.614;2022-09-09T08:34:17;17.30;99.90
61841;DHT22;47773;53.174;6.614;2022-09-09T08:36:47;17.30;99.90
61841;DHT22;47773;53.174;6.614;2022-09-09T08:39:15;17.20;99.90
61841;DHT22;47773;53.174;6.614;2022-09-09T08:50:26;17.30;99.90
61841;DHT22;47773;53.174;6.614;2022-09-09T08:53:05;17.30;99.90
61841;DHT22;47773;53.174;6.614;2022-09-09T08:55:48;17.40;99.90
61841;DHT22;47773;53.174;6.614;2022-09-09T08:58:27;17.40;99.90
61841;DHT22;47773;53.174;6.614;2022-09-09T09:09:35;17.60;99.90
61841;DHT22;47773;53.174;6.614;2022-09-09T09:12:21;17.70;99.90
61841;DHT22;47773;53.174;6.614;2022-09-09T09:14:48;17.70;99.90
61841;DHT22;47773;53.174;6.614;2022-09-09T09:17:18;17.70;99.90
61841;DHT22;47773;53.174;6.614;2022-09-09T09:19:46;17.70;99.90
61841;DHT22;47773;53.174;6.614;2022-09-09T09:22:30;17.80;99.90
61841;DHT22;47773;53.174;6.614;2022-09-09T09:27:57;17.90;99.90
61841;DHT22;47773;53.174;6.614;2022-09-09T09:30:31;17.90;99.90
61841;DHT22;47773;53.174;6.614;2022-09-09T09:33:08;18.00;99.90
61841;DHT22;47773;53.174;6.614;2022-09-09T09:35:36;18.30;99.90
61841;DHT22;47773;53.174;6.614;2022-09-09T09:38:01;18.40;99.90
61841;DHT22;47773;53.174;6.614;2022-09-09T09:40:35;18.40;99.90
61841;DHT22;47773;53.174;6.614;2022-09-09T09:43:01;18.40;99.90
61841;DHT22;47773;53.174;6.614;2022-09-09T09:45:28;18.40;99.90
61841;DHT22;47773;53.174;6.614;2022-09-09T09:48:01;18.30;99.90
61841;DHT22;47773;53.174;6.614;2022-09-09T09:50:27;18.40;99.90
61841;DHT22;47773;53.174;6.614;2022-09-09T09:52:58;18.40;99.90
61841;DHT22;47773;53.174;6.614;2022-09-09T09:55:25;18.40;99.90
61841;DHT22;47773;53.174;6.614;2022-09-09T09:57:52;18.40;99.90
61841;DHT22;47773;53.174;6.614;2022-09-09T10:00:22;18.50;99.90
61841;DHT22;47773;53.174;6.614;2022-09-09T10:02:49;18.50;99.90
61841;DHT22;47773;53.174;6.614;2022-09-09T10:07:43;18.50;99.90
61841;DHT22;47773;53.174;6.614;2022-09-09T10:10:25;18.80;99.90
61841;DHT22;47773;53.174;6.614;2022-09-09T10:13:05;19.10;99.90
61841;DHT22;47773;53.174;6.614;2022-09-09T10:15:43;19.30;99.90
61841;DHT22;47773;53.174;6.614;2022-09-09T10:21:20;19.70;99.90
61841;DHT22;47773;53.174;6.614;2022-09-09T10:35:04;19.60;99.90
61841;DHT22;47773;53.174;6.614;2022-09-09T10:40:41;19.40;99.90
61841;DHT22;47773;53.174;6.614;2022-09-09T10:46:16;19.40;99.90
61841;DHT22;47773;53.174;6.614;2022-09-09T10:54:05;19.20;99.90
61841;DHT22;47773;53.174;6.614;2022-09-09T10:56:32;19.20;99.90
61841;DHT22;47773;53.174;6.614;2022-09-09T10:59:10;19.30;99.90
61841;DHT22;47773;53.174;6.614;2022-09-09T11:04:17;19.40;99.90
61841;DHT22;47773;53.174;6.614;2022-09-09T11:06:48;19.30;99.90
61841;DHT22;47773;53.174;6.614;2022-09-09T11:09:27;19.30;99.90
61841;DHT22;47773;53.174;6.614;2022-09-09T11:11:55;19.30;99.90
61841;DHT22;47773;53.174;6.614;2022-09-09T11:14:36;19.30;99.90
61841;DHT22;47773;53.174;6.614;2022-09-09T11:17:18;19.30;99.90
61841;DHT22;47773;53.174;6.614;2022-09-09T11:19:45;19.20;99.90
61841;DHT22;47773;53.174;6.614;2022-09-09T11:22:33;19.30;99.90
61841;DHT22;47773;53.174;6.614;2022-09-09T11:30:32;20.30;99.90
61841;DHT22;47773;53.174;6.614;2022-09-09T11:38:48;20.80;99.90
61841;DHT22;47773;53.174;6.614;2022-09-09T11:41:17;20.90;99.90
61841;DHT22;47773;53.174;6.614;2022-09-09T11:43:52;20.80;99.90
61841;DHT22;47773;53.174;6.614;2022-09-09T11:46:23;20.60;99.90
61841;DHT22;47773;53.174;6.614;2022-09-09T11:49:04;20.40;99.90
61841;DHT22;47773;53.174;6.614;2022-09-09T11:51:32;20.50;99.90
61841;DHT22;47773;53.174;6.614;2022-09-09T11:54:00;20.40;99.90
61841;DHT22;47773;53.174;6.614;2022-09-09T11:56:42;20.40;99.90
61841;DHT22;47773;53.174;6.614;2022-09-09T11:59:29;20.50;99.90
61841;DHT22;47773;53.174;6.614;2022-09-09T12:01:58;20.50;99.90
61841;DHT22;47773;53.174;6.614;2022-09-09T12:07:28;20.30;99.90
61841;DHT22;47773;53.174;6.614;2022-09-09T12:12:44;20.70;99.90
61841;DHT22;47773;53.174;6.614;2022-09-09T12:17:46;21.10;99.90
61841;DHT22;47773;53.174;6.614;2022-09-09T12:23:13;20.90;99.90
61841;DHT22;47773;53.174;6.614;2022-09-09T12:31:15;20.50;99.90
61841;DHT22;47773;53.174;6.614;2022-09-09T12:33:44;20.40;99.90
61841;DHT22;47773;53.174;6.614;2022-09-09T12:36:32;20.30;99.90
61841;DHT22;47773;53.174;6.614;2022-09-09T12:39:16;20.10;99.90
61841;DHT22;47773;53.174;6.614;2022-09-09T12:41:53;20.10;99.90
61841;DHT22;47773;53.174;6.614;2022-09-09T12:44:24;20.10;99.90
61841;DHT22;47773;53.174;6.614;2022-09-09T12:46:51;20.20;99.90
61841;DHT22;47773;53.174;6.614;2022-09-09T12:49:34;20.20;99.90
61841;DHT22;47773;53.174;6.614;2022-09-09T12:54:50;20.20;99.90
61841;DHT22;47773;53.174;6.614;2022-09-09T12:57:20;20.20;99.90
61841;DHT22;47773;53.174;6.614;2022-09-09T12:59:47;20.30;99.90
61841;DHT22;47773;53.174;6.614;2022-09-09T13:04:44;20.50;99.90
61841;DHT22;47773;53.174;6.614;2022-09-09T13:07:13;20.60;99.90
61841;DHT22;47773;53.174;6.614;2022-09-09T13:09:39;20.70;99.90
61841;DHT22;47773;53.174;6.614;2022-09-09T13:12:19;20.80;99.90
61841;DHT22;47773;53.174;6.614;2022-09-09T13:14:49;20.70;99.90
61841;DHT22;47773;53.174;6.614;2022-09-09T13:17:26;20.70;99.90
61841;DHT22;47773;53.174;6.614;2022-09-09T13:19:55;20.80;99.90
61841;DHT22;47773;53.174;6.614;2022-09-09T13:22:37;20.90;99.90
61841;DHT22;47773;53.174;6.614;2022-09-09T13:27:34;20.80;99.90
61841;DHT22;47773;53.174;6.614;2022-09-09T13:30:29;20.70;99.90
61841;DHT22;47773;53.174;6.614;2022-09-09T13:35:57;20.60;99.90
61841;DHT22;47773;53.174;6.614;2022-09-09T13:38:23;20.60;99.90
61841;DHT22;47773;53.174;6.614;2022-09-09T13:41:02;20.50;99.90
61841;DHT22;47773;53.174;6.614;2022-09-09T13:43:31;20.40;99.90
61841;DHT22;47773;53.174;6.614;2022-09-09T13:48:57;20.30;99.90
61841;DHT22;47773;53.174;6.614;2022-09-09T13:51:41;20.20;99.90
61841;DHT22;47773;53.174;6.614;2022-09-09T13:54:10;20.20;99.90
61841;DHT22;47773;53.174;6.614;2022-09-09T13:56:37;20.30;99.90
61841;DHT22;47773;53.174;6.614;2022-09-09T13:59:05;20.40;99.90
61841;DHT22;47773;53.174;6.614;2022-09-09T14:01:31;20.50;99.90
61841;DHT22;47773;53.174;6.614;2022-09-09T14:04:00;20.60;99.90
61841;DHT22;47773;53.174;6.614;2022-09-09T14:06:25;20.50;99.90
61841;DHT22;47773;53.174;6.614;2022-09-09T14:08:51;20.50;99.90
61841;DHT22;47773;53.174;6.614;2022-09-09T14:11:21;20.50;99.90
61841;DHT22;47773;53.174;6.614;2022-09-09T14:13:47;20.40;99.90
61841;DHT22;47773;53.174;6.614;2022-09-09T14:16:16;20.30;99.90
61841;DHT22;47773;53.174;6.614;2022-09-09T14:18:43;20.20;99.90
61841;DHT22;47773;53.174;6.614;2022-09-09T14:21:10;20.10;99.90
61841;DHT22;47773;53.174;6.614;2022-09-09T14:23:38;20.20;99.90
61841;DHT22;47773;53.174;6.614;2022-09-09T14:26:05;20.20;99.90
61841;DHT22;47773;53.174;6.614;2022-09-09T14:28:31;20.20;99.90
61841;DHT22;47773;53.174;6.614;2022-09-09T14:31:03;20.20;99.90
61841;DHT22;47773;53.174;6.614;2022-09-09T14:33:29;20.10;99.90
61841;DHT22;47773;53.174;6.614;2022-09-09T14:35:59;20.10;99.90
61841;DHT22;47773;53.174;6.614;2022-09-09T14:38:29;20.00;99.90
61841;DHT22;47773;53.174;6.614;2022-09-09T14:40:54;19.90;99.90
61841;DHT22;47773;53.174;6.614;2022-09-09T14:43:21;19.80;99.90
61841;DHT22;47773;53.174;6.614;2022-09-09T14:45:47;19.80;99.90
61841;DHT22;47773;53.174;6.614;2022-09-09T14:48:17;19.60;99.90
61841;DHT22;47773;53.174;6.614;2022-09-09T14:50:42;19.40;99.90
61841;DHT22;47773;53.174;6.614;2022-09-09T14:53:08;19.10;99.90
61841;DHT22;47773;53.174;6.614;2022-09-09T14:55:36;19.00;99.90
61841;DHT22;47773;53.174;6.614;2022-09-09T14:58:03;18.90;99.90
61841;DHT22;47773;53.174;6.614;2022-09-09T15:00:29;19.00;99.90
61841;DHT22;47773;53.174;6.614;2022-09-09T15:02:55;19.00;99.90
61841;DHT22;47773;53.174;6.614;2022-09-09T15:05:22;19.00;99.90
61841;DHT22;47773;53.174;6.614;2022-09-09T15:07:47;19.20;99.90
61841;DHT22;47773;53.174;6.614;2022-09-09T15:10:14;19.20;99.90
61841;DHT22;47773;53.174;6.614;2022-09-09T15:12:40;19.30;99.90
61841;DHT22;47773;53.174;6.614;2022-09-09T15:15:07;19.30;99.90
61841;DHT22;47773;53.174;6.614;2022-09-09T15:17:34;19.40;99.90
61841;DHT22;47773;53.174;6.614;2022-09-09T15:19:59;19.40;99.90
61841;DHT22;47773;53.174;6.614;2022-09-09T15:22:25;19.30;99.90
61841;DHT22;47773;53.174;6.614;2022-09-09T15:24:51;19.30;99.90
61841;DHT22;47773;53.174;6.614;2022-09-09T15:27:17;19.20;99.90
61841;DHT22;47773;53.174;6.614;2022-09-09T15:29:43;19.20;99.90
61841;DHT22;47773;53.174;6.614;2022-09-09T15:32:09;19.20;99.90
61841;DHT22;47773;53.174;6.614;2022-09-09T15:34:35;19.20;99.90
61841;DHT22;47773;53.174;6.614;2022-09-09T15:37:01;19.20;99.90
61841;DHT22;47773;53.174;6.614;2022-09-09T15:39:27;19.30;99.90
61841;DHT22;47773;53.174;6.614;2022-09-09T15:41:53;19.30;99.90
61841;DHT22;47773;53.174;6.614;2022-09-09T15:44:18;19.40;99.90
61841;DHT22;47773;53.174;6.614;2022-09-09T15:46:51;19.40;99.90
61841;DHT22;47773;53.174;6.614;2022-09-09T15:49:24;19.50;99.90
61841;DHT22;47773;53.174;6.614;2022-09-09T15:51:59;19.40;99.90
61841;DHT22;47773;53.174;6.614;2022-09-09T15:54:27;19.40;99.90
61841;DHT22;47773;53.174;6.614;2022-09-09T15:56:58;19.40;99.90
61841;DHT22;47773;53.174;6.614;2022-09-09T15:59:27;19.30;99.90
61841;DHT22;47773;53.174;6.614;2022-09-09T16:01:56;19.20;99.90
61841;DHT22;47773;53.174;6.614;2022-09-09T16:04:23;19.20;99.90
61841;DHT22;47773;53.174;6.614;2022-09-09T16:06:53;19.10;99.90
61841;DHT22;47773;53.174;6.614;2022-09-09T16:09:20;19.10;99.90
61841;DHT22;47773;53.174;6.614;2022-09-09T16:11:46;19.10;99.90
61841;DHT22;47773;53.174;6.614;2022-09-09T16:14:14;19.00;99.90
61841;DHT22;47773;53.174;6.614;2022-09-09T16:16:41;18.90;99.90
61841;DHT22;47773;53.174;6.614;2022-09-09T16:19:09;18.80;99.90
61841;DHT22;47773;53.174;6.614;2022-09-09T16:21:41;18.80;99.90
61841;DHT22;47773;53.174;6.614;2022-09-09T16:24:10;18.80;99.90
61841;DHT22;47773;53.174;6.614;2022-09-09T16:26:38;18.70;99.90
61841;DHT22;47773;53.174;6.614;2022-09-09T16:29:04;18.70;99.90
61841;DHT22;47773;53.174;6.614;2022-09-09T16:31:31;18.70;99.90
61841;DHT22;47773;53.174;6.614;2022-09-09T16:33:59;18.70;99.90
61841;DHT22;47773;53.174;6.614;2022-09-09T16:36:27;18.70;99.90
61841;DHT22;47773;53.174;6.614;2022-09-09T16:38:54;18.70;99.90
61841;DHT22;47773;53.174;6.614;2022-09-09T16:41:20;18.60;99.90
61841;DHT22;47773;53.174;6.614;2022-09-09T16:43:46;18.60;99.90
61841;DHT22;47773;53.174;6.614;2022-09-09T16:46:17;18.60;99.90
61841;DHT22;47773;53.174;6.614;2022-09-09T16:48:44;18.60;99.90
61841;DHT22;47773;53.174;6.614;2022-09-09T16:51:18;18.50;99.90
61841;DHT22;47773;53.174;6.614;2022-09-09T16:53:44;18.50;99.90
61841;DHT22;47773;53.174;6.614;2022-09-09T16:56:15;18.40;99.90
61841;DHT22;47773;53.174;6.614;2022-09-09T16:58:42;18.40;99.90
61841;DHT22;47773;53.174;6.614;2022-09-09T17:01:10;18.40;99.90
61841;DHT22;47773;53.174;6.614;2022-09-09T17:03:39;18.40;99.90
61841;DHT22;47773;53.174;6.614;2022-09-09T17:06:13;18.40;99.90
61841;DHT22;47773;53.174;6.614;2022-09-09T17:08:40;18.40;99.90
61841;DHT22;47773;53.174;6.614;2022-09-09T17:11:17;18.40;99.90
61841;DHT22;47773;53.174;6.614;2022-09-09T17:13:45;18.30;99.90
61841;DHT22;47773;53.174;6.614;2022-09-09T17:16:12;18.30;99.90
61841;DHT22;47773;53.174;6.614;2022-09-09T17:18:38;18.30;99.90
61841;DHT22;47773;53.174;6.614;2022-09-09T17:21:06;18.30;99.90
61841;DHT22;47773;53.174;6.614;2022-09-09T17:23:34;18.30;99.90
61841;DHT22;47773;53.174;6.614;2022-09-09T17:26:07;18.20;99.90
61841;DHT22;47773;53.174;6.614;2022-09-09T17:28:34;18.20;99.90
61841;DHT22;47773;53.174;6.614;2022-09-09T17:31:01;18.20;99.90
61841;DHT22;47773;53.174;6.614;2022-09-09T17:33:28;18.20;99.90
61841;DHT22;47773;53.174;6.614;2022-09-09T17:36:04;18.20;99.90
61841;DHT22;47773;53.174;6.614;2022-09-09T17:38:31;18.20;99.90
61841;DHT22;47773;53.174;6.614;2022-09-09T17:43:35;18.20;99.90
61841;DHT22;47773;53.174;6.614;2022-09-09T17:46:08;18.20;99.90
61841;DHT22;47773;53.174;6.614;2022-09-09T17:48:34;18.20;99.90
61841;DHT22;47773;53.174;6.614;2022-09-09T17:51:06;18.20;99.90
61841;DHT22;47773;53.174;6.614;2022-09-09T17:53:41;18.20;99.90
61841;DHT22;47773;53.174;6.614;2022-09-09T17:56:09;18.20;99.90
61841;DHT22;47773;53.174;6.614;2022-09-09T17:58:35;18.20;99.90
61841;DHT22;47773;53.174;6.614;2022-09-09T18:01:03;18.10;99.90
61841;DHT22;47773;53.174;6.614;2022-09-09T18:03:31;18.10;99.90
61841;DHT22;47773;53.174;6.614;2022-09-09T18:06:01;18.10;99.90
61841;DHT22;47773;53.174;6.614;2022-09-09T18:08:27;18.00;99.90
61841;DHT22;47773;53.174;6.614;2022-09-09T18:10:53;18.00;99.90
61841;DHT22;47773;53.174;6.614;2022-09-09T18:13:20;18.00;99.90